Time;durP1;ratioP1;P1;durP2;ratioP2;P2;SDS_P1;SDS_P2;PMS_P1;PMS_P2;Temp;Humidity;BMP_temperature;BMP_pressure;BME280_temperature;BME280_humidity;BME280_pressure;Samples;Min_cycle;Max_cycle;Signal;HPM_P1;HPM_P2
2021/03/09 00:00:27;;;;;;;4.88;3.78;;;0.10;60.30;;;;;;5035166;28;20098;-58
2021/03/09 00:02:53;;;;;;;4.60;3.53;;;0.10;60.30;;;;;;5035208;28;20029;-56
2021/03/09 00:05:21;;;;;;;4.07;3.42;;;0.10;60.30;;;;;;5035058;28;20036;-58
2021/03/09 00:07:47;;;;;;;4.43;3.30;;;0.10;60.30;;;;;;5035082;28;20026;-56
2021/03/09 00:10:13;;;;;;;3.75;3.22;;;0.10;60.30;;;;;;5034998;28;20068;-59
2021/03/09 00:12:39;;;;;;;4.30;3.30;;;0.00;60.30;;;;;;5017802;28;20037;-58
2021/03/09 00:15:06;;;;;;;5.20;3.92;;;0.00;60.30;;;;;;5015253;28;20030;-59
2021/03/09 00:17:32;;;;;;;5.15;3.83;;;0.00;60.20;;;;;;5015093;28;20026;-56
2021/03/09 00:19:57;;;;;;;4.15;3.50;;;0.00;60.00;;;;;;5023152;28;20032;-58
2021/03/09 00:22:23;;;;;;;4.55;3.45;;;0.00;60.10;;;;;;5034851;28;20079;-57
2021/03/09 00:24:49;;;;;;;4.22;3.80;;;0.00;60.50;;;;;;5034809;28;20489;-57
2021/03/09 00:27:15;;;;;;;5.28;4.13;;;-0.10;60.40;;;;;;5035135;28;20083;-59
2021/03/09 00:29:41;;;;;;;5.13;4.07;;;-0.10;60.30;;;;;;5034722;28;20029;-54
2021/03/09 00:32:08;;;;;;;4.00;3.60;;;-0.10;60.40;;;;;;5034664;28;20025;-57
2021/03/09 00:34:36;;;;;;;4.75;3.97;;;-0.20;60.40;;;;;;5034618;28;20021;-58
2021/03/09 00:37:03;;;;;;;5.75;3.90;;;-0.20;60.50;;;;;;5034574;28;20409;-57
2021/03/09 00:39:29;;;;;;;5.65;4.05;;;-0.20;60.70;;;;;;5034420;28;20394;-58
2021/03/09 00:41:54;;;;;;;5.13;3.72;;;-0.30;60.50;;;;;;5032403;28;20017;-58
2021/03/09 00:44:20;;;;;;;5.10;4.03;;;-0.30;60.50;;;;;;5023094;28;20083;-58
2021/03/09 00:46:48;;;;;;;5.63;3.80;;;-0.30;60.50;;;;;;5027160;28;20044;-58
2021/03/09 00:49:14;;;;;;;4.50;3.78;;;-0.30;60.60;;;;;;5034039;28;20053;-56
2021/03/09 00:51:40;;;;;;;5.30;3.90;;;-0.40;60.70;;;;;;5034130;28;20392;-55
2021/03/09 00:54:05;;;;;;;5.20;3.92;;;-0.40;60.70;;;;;;5027676;28;20045;-55
2021/03/09 00:56:31;;;;;;;5.65;3.78;;;-0.40;60.60;;;;;;5014389;28;20037;-55
2021/03/09 00:58:57;;;;;;;5.32;4.00;;;-0.40;60.60;;;;;;5014251;28;20117;-57
2021/03/09 01:01:23;;;;;;;4.13;3.72;;;-0.40;60.70;;;;;;5014406;28;20100;-58
2021/03/09 01:03:48;;;;;;;4.97;4.03;;;-0.50;60.60;;;;;;5014276;28;20029;-58
2021/03/09 01:06:14;;;;;;;6.07;4.32;;;-0.50;60.60;;;;;;5014494;28;20036;-55
2021/03/09 01:08:40;;;;;;;5.45;4.35;;;-0.50;60.60;;;;;;5014200;28;20033;-58
2021/03/09 01:11:05;;;;;;;4.63;3.50;;;-0.50;60.60;;;;;;5024847;28;20041;-57
2021/03/09 01:13:31;;;;;;;7.38;4.13;;;-0.50;60.70;;;;;;5014166;28;20068;-58
2021/03/09 01:15:57;;;;;;;4.18;3.78;;;-0.50;60.70;;;;;;5014274;28;20057;-58
2021/03/09 01:18:22;;;;;;;6.18;4.10;;;-0.50;60.50;;;;;;5014008;28;20030;-59
2021/03/09 01:20:48;;;;;;;4.90;4.10;;;-0.50;60.50;;;;;;5028555;28;20039;-57
2021/03/09 01:23:14;;;;;;;6.00;3.65;;;-0.50;60.50;;;;;;5034097;28;20033;-58
2021/03/09 01:25:41;;;;;;;5.95;4.20;;;-0.50;60.40;;;;;;5033717;28;20056;-57
2021/03/09 01:28:07;;;;;;;6.38;4.60;;;-0.50;60.40;;;;;;5033686;28;20055;-56
2021/03/09 01:30:33;;;;;;;5.13;4.10;;;-0.50;61.10;;;;;;5032472;28;20108;-57
2021/03/09 01:32:59;;;;;;;5.07;3.88;;;-0.60;60.40;;;;;;5033588;28;20044;-56
2021/03/09 01:35:25;;;;;;;7.82;4.65;;;-0.60;60.40;;;;;;5033548;28;20117;-58
2021/03/09 01:37:51;;;;;;;6.55;4.22;;;-0.60;60.50;;;;;;5033393;28;20112;-58
2021/03/09 01:40:17;;;;;;;4.60;4.10;;;-0.60;60.40;;;;;;5033713;28;20029;-55
2021/03/09 01:42:42;;;;;;;5.35;4.00;;;-0.60;60.50;;;;;;5013659;28;20030;-57
2021/03/09 01:45:09;;;;;;;6.00;4.10;;;-0.60;60.50;;;;;;5028241;28;20491;-58
2021/03/09 01:47:41;;;;;;;4.80;4.00;;;-0.60;60.40;;;;;;5033343;28;20128;-58
2021/03/09 01:50:08;;;;;;;5.10;3.88;;;-0.60;60.40;;;;;;5022611;28;20096;-58
2021/03/09 01:52:34;;;;;;;4.82;3.70;;;-0.50;60.40;;;;;;5013601;28;20382;-58
2021/03/09 01:55:00;;;;;;;5.55;4.03;;;-0.50;60.30;;;;;;5032033;28;20029;-57
2021/03/09 01:57:26;;;;;;;5.25;3.55;;;-0.50;60.30;;;;;;5033291;28;20500;-58
2021/03/09 01:59:54;;;;;;;4.97;3.78;;;-0.50;60.10;;;;;;5033226;28;20017;-58
2021/03/09 02:02:20;;;;;;;5.78;4.45;;;-0.50;60.00;;;;;;5033131;28;20022;-56
2021/03/09 02:04:45;;;;;;;5.05;3.75;;;-0.50;59.90;;;;;;5033238;28;20018;-56
2021/03/09 02:07:11;;;;;;;4.75;4.13;;;-0.50;60.00;;;;;;5033142;28;20101;-58
2021/03/09 02:09:37;;;;;;;4.88;4.18;;;-0.50;59.90;;;;;;5033114;28;20025;-58
2021/03/09 02:12:22;;;;;;;4.18;3.70;;;-0.50;59.80;;;;;;5029917;28;20485;-58
2021/03/09 02:15:07;;;;;;;5.50;4.05;;;-0.50;59.70;;;;;;5033017;28;20028;-54
2021/03/09 02:17:54;;;;;;;4.20;3.80;;;-0.50;59.80;;;;;;5033129;28;20072;-53
2021/03/09 02:20:56;;;;;;;7.50;4.10;;;-0.50;59.70;;;;;;5032920;28;20068;-54
2021/03/09 02:23:34;;;;;;;;;;;-0.50;59.60;;;;;;5033691;28;20029;-56
2021/03/09 02:26:11;;;;;;;7.65;3.50;;;-0.60;59.60;;;;;;5033038;28;19905;-57
2021/03/09 02:29:15;;;;;;;6.53;3.90;;;-0.60;59.80;;;;;;5033059;28;20025;-54
2021/03/09 02:31:44;;;;;;;4.30;3.80;;;-0.50;59.60;;;;;;5033369;28;20022;-58
2021/03/09 02:34:12;;;;;;;5.65;4.38;;;-0.60;59.60;;;;;;5036744;28;20030;-57
2021/03/09 02:36:41;;;;;;;5.22;4.40;;;-0.60;59.50;;;;;;5036767;28;20026;-57
2021/03/09 02:39:10;;;;;;;4.88;4.05;;;-0.50;59.60;;;;;;5036754;28;20032;-53
2021/03/09 02:41:47;;;;;;;5.57;4.22;;;-0.60;59.60;;;;;;5025265;28;20033;-57
2021/03/09 02:44:21;;;;;;;5.35;4.68;;;-0.50;59.70;;;;;;5033967;28;20047;-58
2021/03/09 02:46:49;;;;;;;6.93;4.47;;;-0.50;59.50;;;;;;5034620;28;20040;-54
2021/03/09 02:49:15;;;;;;;6.50;4.68;;;-0.60;59.60;;;;;;5036325;28;20049;-57
2021/03/09 02:51:44;;;;;;;7.03;4.43;;;-0.60;59.60;;;;;;5036516;28;20079;-54
2021/03/09 02:54:11;;;;;;;7.53;4.35;;;-0.60;59.60;;;;;;5036488;28;20030;-54
2021/03/09 02:56:43;;;;;;;5.30;4.15;;;-0.60;60.10;;;;;;5036474;28;20029;-54
2021/03/09 02:59:13;;;;;;;5.90;4.40;;;-0.60;59.70;;;;;;5036304;28;20033;-54
2021/03/09 03:01:43;;;;;;;6.18;4.10;;;-0.60;59.70;;;;;;5036368;28;20136;-57
2021/03/09 03:04:12;;;;;;;6.15;4.50;;;-0.60;59.80;;;;;;5036579;28;20037;-58
2021/03/09 03:06:39;;;;;;;5.85;3.80;;;-0.60;59.70;;;;;;5036143;28;20026;-57
2021/03/09 03:09:06;;;;;;;5.38;4.38;;;-0.60;59.80;;;;;;5036311;28;20384;-57
2021/03/09 03:11:33;;;;;;;5.93;4.55;;;-0.60;59.80;;;;;;5022760;28;20087;-57
2021/03/09 03:14:04;;;;;;;4.90;4.07;;;-0.60;59.90;;;;;;5033848;28;20038;-58
2021/03/09 03:16:31;;;;;;;5.88;4.00;;;-0.60;59.70;;;;;;5034844;28;20092;-59
2021/03/09 03:19:01;;;;;;;5.45;4.10;;;-0.60;59.80;;;;;;5036237;28;20087;-58
2021/03/09 03:21:28;;;;;;;6.75;4.35;;;-0.50;59.90;;;;;;5036111;28;20052;-58
2021/03/09 03:23:59;;;;;;;4.97;4.47;;;-0.60;59.90;;;;;;5035993;28;20041;-58
2021/03/09 03:26:27;;;;;;;5.47;4.35;;;-0.60;59.80;;;;;;5036259;28;20381;-56
2021/03/09 03:28:55;;;;;;;6.13;3.80;;;-0.60;59.90;;;;;;5036149;28;20029;-59
2021/03/09 03:31:21;;;;;;;6.40;4.20;;;-0.50;60.00;;;;;;5036166;28;20084;-58
2021/03/09 03:33:48;;;;;;;6.32;4.32;;;-0.50;60.00;;;;;;5035818;28;20469;-57
2021/03/09 03:36:15;;;;;;;5.32;4.03;;;-0.50;60.00;;;;;;5035773;28;20029;-56
2021/03/09 03:38:42;;;;;;;4.13;3.67;;;-0.50;60.00;;;;;;5035600;28;20512;-55
2021/03/09 03:41:09;;;;;;;5.22;4.32;;;-0.40;60.10;;;;;;5025712;28;20018;-54
2021/03/09 03:43:36;;;;;;;4.68;3.60;;;-0.40;59.90;;;;;;5017259;28;20030;-56
2021/03/09 03:46:02;;;;;;;4.70;4.13;;;-0.30;60.00;;;;;;5035482;28;20033;-54
2021/03/09 03:48:32;;;;;;;4.70;4.00;;;-0.30;59.90;;;;;;5035540;28;20029;-57
2021/03/09 03:51:00;;;;;;;5.40;3.67;;;-0.20;59.80;;;;;;5035382;28;20128;-56
2021/03/09 03:53:50;;;;;;;5.05;3.72;;;-0.20;59.90;;;;;;5035406;28;20033;-54
2021/03/09 03:56:41;;;;;;;5.80;4.00;;;-0.20;59.60;;;;;;5035120;28;20033;-58
2021/03/09 03:59:08;;;;;;;5.07;3.70;;;-0.20;59.90;;;;;;5035440;28;20440;-55
2021/03/09 04:01:35;;;;;;;6.25;3.80;;;-0.10;59.80;;;;;;5035284;28;20100;-58
2021/03/09 04:04:08;;;;;;;3.83;3.42;;;-0.10;59.70;;;;;;5035237;28;20079;-56
2021/03/09 04:06:35;;;;;;;5.28;3.90;;;-0.10;59.70;;;;;;5035128;28;20358;-56
2021/03/09 04:09:05;;;;;;;4.97;3.80;;;-0.10;59.70;;;;;;5035380;28;20535;-54
2021/03/09 04:11:31;;;;;;;5.65;4.15;;;-0.10;59.70;;;;;;5019957;28;20029;-57
2021/03/09 04:13:58;;;;;;;5.07;4.00;;;-0.10;59.90;;;;;;5015176;28;20030;-59
2021/03/09 04:16:25;;;;;;;5.00;3.70;;;-0.10;59.80;;;;;;5015169;28;20022;-59
2021/03/09 04:18:53;;;;;;;5.90;4.57;;;-0.10;59.90;;;;;;5015010;28;20033;-54
2021/03/09 04:21:19;;;;;;;5.53;4.05;;;0.00;59.80;;;;;;5015070;28;20109;-58
2021/03/09 04:23:45;;;;;;;5.47;4.13;;;0.00;59.80;;;;;;5014959;28;20029;-55
2021/03/09 04:26:12;;;;;;;6.18;4.57;;;0.00;59.70;;;;;;5014987;28;20018;-56
2021/03/09 04:28:40;;;;;;;6.05;4.78;;;0.00;59.80;;;;;;5014893;28;20498;-57
2021/03/09 04:31:06;;;;;;;6.75;4.57;;;0.00;59.70;;;;;;5014909;28;20053;-54
2021/03/09 04:33:32;;;;;;;4.90;4.00;;;0.00;59.70;;;;;;5014967;28;20624;-56
2021/03/09 04:35:59;;;;;;;5.70;4.07;;;0.10;59.90;;;;;;5015114;28;20021;-57
2021/03/09 04:38:26;;;;;;;5.85;4.20;;;0.10;59.90;;;;;;5015007;28;20032;-56
2021/03/09 04:40:53;;;;;;;5.22;4.25;;;0.10;59.70;;;;;;5023193;28;20461;-55
2021/03/09 04:43:19;;;;;;;5.45;4.30;;;0.20;59.70;;;;;;5034252;28;20100;-55
2021/03/09 04:45:45;;;;;;;4.57;3.70;;;0.20;59.70;;;;;;5034367;28;20105;-57
2021/03/09 04:48:12;;;;;;;5.85;4.50;;;0.20;59.60;;;;;;5034370;28;20022;-56
2021/03/09 04:50:38;;;;;;;6.50;4.15;;;0.20;59.50;;;;;;5034070;28;20111;-58
2021/03/09 04:53:07;;;;;;;6.10;4.25;;;0.20;59.60;;;;;;5034286;28;20520;-57
2021/03/09 04:55:32;;;;;;;5.90;3.80;;;0.30;59.70;;;;;;5033577;28;20036;-57
2021/03/09 04:57:59;;;;;;;4.00;3.60;;;0.30;59.70;;;;;;5034152;28;20030;-57
2021/03/09 05:00:26;;;;;;;4.53;3.67;;;0.30;59.80;;;;;;5034480;28;20469;-55
2021/03/09 05:02:52;;;;;;;5.55;4.10;;;0.40;59.70;;;;;;5034176;28;20052;-55
2021/03/09 05:05:20;;;;;;;7.13;4.22;;;0.40;59.70;;;;;;5034020;28;20025;-54
2021/03/09 05:07:46;;;;;;;7.07;4.22;;;0.40;59.60;;;;;;5034050;28;20075;-56
2021/03/09 05:10:13;;;;;;;5.63;4.05;;;0.40;59.60;;;;;;5030752;28;20029;-55
2021/03/09 05:12:41;;;;;;;5.57;3.97;;;0.50;59.60;;;;;;5033970;28;20388;-54
2021/03/09 05:15:08;;;;;;;4.97;4.28;;;0.50;59.50;;;;;;5032656;28;20428;-54
2021/03/09 05:17:33;;;;;;;8.55;4.60;;;0.50;59.60;;;;;;5033970;28;20022;-54
2021/03/09 05:19:59;;;;;;;6.18;3.85;;;0.40;59.60;;;;;;5033750;28;20091;-56
2021/03/09 05:22:25;;;;;;;5.60;4.55;;;0.50;59.60;;;;;;5033831;28;20032;-54
2021/03/09 05:24:51;;;;;;;5.03;3.58;;;0.50;59.70;;;;;;5033793;28;20381;-57
2021/03/09 05:27:17;;;;;;;6.32;4.35;;;0.50;59.60;;;;;;5033767;28;20053;-59
2021/03/09 05:29:42;;;;;;;5.43;4.25;;;0.60;59.60;;;;;;5033673;28;20468;-55
2021/03/09 05:32:08;;;;;;;5.57;4.25;;;0.50;59.60;;;;;;5034005;28;20088;-57
2021/03/09 05:34:34;;;;;;;5.30;3.97;;;0.60;59.80;;;;;;5033636;28;20026;-56
2021/03/09 05:36:59;;;;;;;6.15;4.07;;;0.60;59.70;;;;;;5033631;28;20056;-57
2021/03/09 05:39:25;;;;;;;6.40;4.35;;;0.60;59.70;;;;;;5033499;28;20065;-57
2021/03/09 05:41:51;;;;;;;5.15;4.30;;;0.70;60.30;;;;;;5015536;28;20022;-57
2021/03/09 05:44:16;;;;;;;5.90;4.32;;;0.70;59.70;;;;;;5033521;28;20026;-56
2021/03/09 05:46:42;;;;;;;7.88;4.43;;;0.70;59.70;;;;;;5032727;28;20029;-55
2021/03/09 05:49:09;;;;;;;7.43;4.25;;;0.80;59.70;;;;;;5032904;28;20056;-57
2021/03/09 05:51:35;;;;;;;7.75;4.45;;;0.90;59.70;;;;;;5033254;28;20022;-55
2021/03/09 05:54:01;;;;;;;5.35;4.15;;;0.90;59.50;;;;;;5033260;28;20075;-55
2021/03/09 05:56:27;;;;;;;5.88;4.07;;;0.90;59.40;;;;;;5033333;28;20025;-57
2021/03/09 05:58:53;;;;;;;7.47;4.28;;;0.90;59.40;;;;;;5033296;28;20497;-54
2021/03/09 06:01:19;;;;;;;6.75;4.18;;;1.00;59.50;;;;;;5065495;28;20021;-58
2021/03/09 06:03:45;;;;;;;5.68;3.67;;;1.10;60.00;;;;;;5033520;28;20481;-58
2021/03/09 06:06:13;;;;;;;5.07;3.67;;;1.10;59.30;;;;;;5034142;28;20037;-56
2021/03/09 06:08:39;;;;;;;6.40;4.07;;;1.10;59.40;;;;;;5037630;28;20029;-58
2021/03/09 06:11:12;;;;;;;3.97;3.58;;;1.20;59.60;;;;;;5024158;28;20112;-58
2021/03/09 06:13:38;;;;;;;4.93;3.75;;;1.30;59.70;;;;;;5021301;28;20469;-58
2021/03/09 06:16:04;;;;;;;4.80;3.47;;;1.30;59.70;;;;;;5017445;28;20036;-57
2021/03/09 06:18:30;;;;;;;5.15;3.75;;;1.40;59.70;;;;;;5017362;28;20030;-57
2021/03/09 06:21:10;;;;;;;5.70;3.63;;;1.50;59.40;;;;;;5017462;28;20025;-57
2021/03/09 06:23:36;;;;;;;4.20;3.47;;;1.60;59.20;;;;;;5017409;28;20018;-57
2021/03/09 06:26:03;;;;;;;4.65;3.28;;;1.60;59.20;;;;;;5017588;28;20096;-55
2021/03/09 06:28:32;;;;;;;5.15;3.80;;;1.70;59.10;;;;;;5017297;28;20034;-56
2021/03/09 06:30:59;;;;;;;4.43;3.83;;;1.70;58.90;;;;;;5016761;28;20370;-54
2021/03/09 06:33:32;;;;;;;5.03;3.58;;;1.80;58.80;;;;;;5024092;28;20029;-57
2021/03/09 06:36:00;;;;;;;5.60;3.70;;;1.90;59.00;;;;;;5030882;28;20021;-57
2021/03/09 06:38:26;;;;;;;4.35;3.67;;;2.00;58.90;;;;;;5035784;28;20037;-55
2021/03/09 06:41:11;;;;;;;4.53;3.67;;;2.00;58.80;;;;;;5032984;28;20058;-57
2021/03/09 06:43:39;;;;;;;4.90;3.33;;;2.10;58.40;;;;;;5027058;28;20025;-58
2021/03/09 06:46:22;;;;;;;4.38;3.42;;;2.20;58.10;;;;;;5056369;28;20030;-55
2021/03/09 06:48:53;;;;;;;6.65;3.90;;;2.10;57.70;;;;;;5029837;28;20021;-57
2021/03/09 06:51:31;;;;;;;3.45;3.10;;;2.10;57.80;;;;;;5026643;28;20040;-55
2021/03/09 06:54:03;;;;;;;4.68;3.05;;;2.10;57.90;;;;;;5024167;28;20054;-55
2021/03/09 06:56:29;;;;;;;4.80;3.08;;;2.10;57.50;;;;;;5023627;28;20036;-57
2021/03/09 06:58:55;;;;;;;4.07;3.33;;;2.10;57.60;;;;;;5026014;28;20040;-56
2021/03/09 07:01:21;;;;;;;4.47;3.03;;;2.00;57.00;;;;;;5021813;28;20358;-56
2021/03/09 07:03:47;;;;;;;3.17;2.97;;;2.10;57.00;;;;;;5032479;28;20026;-58
2021/03/09 07:06:12;;;;;;;4.07;2.88;;;2.10;57.00;;;;;;5022808;28;20018;-57
2021/03/09 07:08:39;;;;;;;3.17;2.88;;;2.10;57.00;;;;;;5023292;28;20038;-57
2021/03/09 07:11:05;;;;;;;3.38;3.00;;;2.10;56.90;;;;;;5022270;28;20034;-56
2021/03/09 07:13:30;;;;;;;3.20;2.90;;;2.10;56.60;;;;;;5025696;28;20123;-58
2021/03/09 07:15:57;;;;;;;3.30;2.80;;;2.20;56.60;;;;;;5023637;28;20469;-57
2021/03/09 07:18:23;;;;;;;3.17;2.72;;;2.20;56.40;;;;;;5020471;28;20088;-56
2021/03/09 07:20:52;;;;;;;3.17;2.85;;;2.20;56.60;;;;;;5019516;28;20500;-58
2021/03/09 07:23:20;;;;;;;6.03;2.92;;;2.20;56.40;;;;;;5018348;28;20097;-54
2021/03/09 07:25:50;;;;;;;3.38;2.85;;;2.20;56.50;;;;;;5017573;28;20464;-58
2021/03/09 07:28:19;;;;;;;2.92;2.70;;;2.20;56.30;;;;;;5021644;28;20053;-56
2021/03/09 07:30:49;;;;;;;4.22;3.15;;;2.20;56.20;;;;;;5015494;28;20627;-57
2021/03/09 07:33:15;;;;;;;3.35;2.85;;;2.20;56.30;;;;;;5015866;28;21071;-55
2021/03/09 07:35:43;;;;;;;3.90;2.97;;;2.10;56.20;;;;;;5014895;28;20030;-58
2021/03/09 07:38:10;;;;;;;4.63;2.85;;;2.20;56.30;;;;;;5011884;28;20033;-58
2021/03/09 07:40:36;;;;;;;3.40;3.00;;;2.10;56.00;;;;;;5011201;28;20117;-57
2021/03/09 07:43:03;;;;;;;5.13;3.00;;;2.10;55.90;;;;;;5011996;28;20060;-56
2021/03/09 07:45:35;;;;;;;3.22;2.88;;;2.10;55.60;;;;;;5012002;28;20030;-56
2021/03/09 07:48:02;;;;;;;3.10;2.90;;;2.10;55.50;;;;;;5011999;28;20044;-57
2021/03/09 07:50:34;;;;;;;3.10;2.80;;;2.00;55.30;;;;;;5015319;28;20049;-57
2021/03/09 07:53:05;;;;;;;5.28;3.40;;;1.90;55.40;;;;;;5009769;28;20034;-57
2021/03/09 07:55:31;;;;;;;4.97;3.40;;;1.80;55.40;;;;;;5011396;28;20497;-57
2021/03/09 07:58:19;;;;;;;3.58;3.00;;;1.70;55.50;;;;;;5012179;28;20030;-60
2021/03/09 08:00:48;;;;;;;4.72;3.33;;;1.70;56.00;;;;;;5015118;28;20033;-55
2021/03/09 08:03:38;;;;;;;5.15;3.13;;;1.60;56.10;;;;;;5008630;28;20034;-57
2021/03/09 08:06:08;;;;;;;4.03;3.38;;;1.50;56.50;;;;;;5015658;28;20033;-57
2021/03/09 08:08:45;;;;;;;4.40;3.55;;;1.50;56.40;;;;;;5013627;28;20785;-58
2021/03/09 08:11:14;;;;;;;3.92;3.40;;;1.40;56.60;;;;;;5007781;28;20470;-57
2021/03/09 08:13:40;;;;;;;3.63;3.30;;;1.40;56.70;;;;;;5007817;28;20100;-57
2021/03/09 08:16:22;;;;;;;3.60;2.92;;;1.30;56.70;;;;;;5010041;28;20108;-56
2021/03/09 08:18:52;;;;;;;3.95;3.22;;;1.40;56.80;;;;;;5011206;28;20041;-57
2021/03/09 08:21:52;;;;;;;4.20;2.83;;;1.40;56.70;;;;;;5012013;28;20034;-57
2021/03/09 08:24:43;;;;;;;2.60;2.40;;;1.40;56.90;;;;;;5010515;28;20063;-56
2021/03/09 08:27:27;;;;;;;4.07;3.10;;;1.30;56.70;;;;;;5012637;28;20037;-57
2021/03/09 08:29:53;;;;;;;3.88;2.92;;;1.20;56.70;;;;;;5007494;28;20105;-57
2021/03/09 08:32:29;;;;;;;3.30;3.00;;;1.20;57.10;;;;;;5014014;28;20112;-57
2021/03/09 08:35:34;;;;;;;3.25;2.65;;;1.20;57.20;;;;;;5015244;28;20493;-56
2021/03/09 08:38:12;;;;;;;4.40;2.97;;;1.30;57.20;;;;;;5006951;28;20041;-56
2021/03/09 08:41:07;;;;;;;3.40;3.10;;;1.30;57.10;;;;;;5012842;28;20036;-54
2021/03/09 08:43:33;;;;;;;3.72;2.83;;;1.40;57.20;;;;;;5014573;28;20473;-55
2021/03/09 08:46:01;;;;;;;4.18;3.08;;;1.40;57.30;;;;;;5013150;28;20065;-53
2021/03/09 08:48:44;;;;;;;3.40;2.90;;;1.50;57.20;;;;;;5013206;28;20829;-54
2021/03/09 08:51:38;;;;;;;3.42;2.92;;;1.60;57.30;;;;;;5012139;28;20053;-55
2021/03/09 08:54:26;;;;;;;3.30;3.00;;;1.80;57.20;;;;;;5007158;28;20045;-56
2021/03/09 08:56:52;;;;;;;4.57;3.25;;;1.90;56.90;;;;;;5011195;28;20555;-53
2021/03/09 08:59:26;;;;;;;3.78;3.25;;;2.00;56.60;;;;;;5001596;28;20067;-54
2021/03/09 09:01:52;;;;;;;3.78;3.13;;;2.10;56.40;;;;;;5007526;28;20370;-56
2021/03/09 09:04:19;;;;;;;4.10;3.17;;;2.20;56.00;;;;;;5010293;28;20120;-53
2021/03/09 09:06:46;;;;;;;3.92;3.50;;;2.20;55.40;;;;;;5015403;28;20057;-54
2021/03/09 09:09:12;;;;;;;3.88;3.45;;;2.20;55.40;;;;;;5005967;28;20025;-53
2021/03/09 09:11:39;;;;;;;4.72;3.10;;;2.20;55.10;;;;;;5011267;28;20041;-54
2021/03/09 09:14:15;;;;;;;4.55;3.10;;;2.20;55.10;;;;;;5008666;28;20384;-54
2021/03/09 09:16:42;;;;;;;5.32;3.25;;;2.20;54.60;;;;;;5010803;28;20046;-55
2021/03/09 09:19:08;;;;;;;3.50;3.20;;;2.20;54.70;;;;;;5004557;28;20033;-55
2021/03/09 09:21:46;;;;;;;3.90;3.50;;;2.10;54.80;;;;;;5020299;28;20040;-56
2021/03/09 09:24:17;;;;;;;3.88;3.03;;;2.20;54.60;;;;;;5013109;28;20021;-54
2021/03/09 09:26:43;;;;;;;3.75;3.35;;;2.20;54.70;;;;;;5011578;28;20561;-53
2021/03/09 09:29:09;;;;;;;3.92;3.13;;;2.20;54.60;;;;;;5015281;28;20033;-53
2021/03/09 09:31:34;;;;;;;4.32;3.25;;;2.30;54.40;;;;;;5008275;28;20057;-54
2021/03/09 09:34:00;;;;;;;4.65;3.42;;;2.30;54.20;;;;;;5004500;28;20495;-53
2021/03/09 09:36:26;;;;;;;3.28;2.97;;;2.30;54.00;;;;;;5012481;28;20435;-52
2021/03/09 09:38:55;;;;;;;3.40;3.10;;;2.30;53.70;;;;;;5007564;28;20037;-52
2021/03/09 09:41:22;;;;;;;4.90;3.20;;;2.20;53.60;;;;;;5010560;28;20026;-54
2021/03/09 09:43:48;;;;;;;3.60;3.08;;;2.20;53.80;;;;;;5014255;28;20029;-52
2021/03/09 09:46:26;;;;;;;3.30;3.00;;;2.20;53.80;;;;;;5005719;28;20145;-55
2021/03/09 09:48:52;;;;;;;4.18;3.42;;;2.20;53.90;;;;;;5002880;28;20053;-54
2021/03/09 09:51:23;;;;;;;4.65;3.67;;;2.30;53.80;;;;;;5003024;28;20115;-53
2021/03/09 09:53:50;;;;;;;5.32;3.40;;;2.30;53.60;;;;;;5004814;28;20460;-52
2021/03/09 09:56:19;;;;;;;3.72;3.08;;;2.40;53.30;;;;;;5006713;28;20607;-55
2021/03/09 09:58:58;;;;;;;4.72;3.90;;;2.50;53.30;;;;;;5002655;28;20091;-54
2021/03/09 10:01:33;;;;;;;3.92;3.30;;;2.60;53.40;;;;;;5008178;28;20496;-51
2021/03/09 10:04:01;;;;;;;3.38;3.08;;;2.70;53.20;;;;;;5009271;28;20025;-55
2021/03/09 10:06:40;;;;;;;3.90;3.50;;;2.70;53.00;;;;;;5010078;28;20037;-55
2021/03/09 10:09:23;;;;;;;3.10;2.85;;;2.70;52.80;;;;;;5008941;28;20026;-54
2021/03/09 10:11:59;;;;;;;3.60;3.10;;;2.80;52.40;;;;;;5010868;28;20355;-55
2021/03/09 10:14:28;;;;;;;3.63;3.33;;;2.80;52.30;;;;;;5009672;28;20086;-54
2021/03/09 10:16:54;;;;;;;4.35;3.35;;;2.80;52.80;;;;;;5010491;28;20029;-51
2021/03/09 10:19:22;;;;;;;3.70;3.15;;;2.80;52.40;;;;;;5010842;28;20034;-54
2021/03/09 10:21:56;;;;;;;3.53;3.17;;;2.90;52.10;;;;;;5008016;28;20021;-52
2021/03/09 10:24:31;;;;;;;3.90;3.28;;;2.90;51.70;;;;;;5009931;28;20058;-56
2021/03/09 10:26:58;;;;;;;3.50;3.20;;;2.90;51.90;;;;;;5006822;28;20026;-56
2021/03/09 10:29:31;;;;;;;3.33;3.00;;;2.90;52.00;;;;;;5008380;28;20500;-54
2021/03/09 10:31:59;;;;;;;3.78;3.30;;;2.90;52.10;;;;;;5007299;28;20548;-56
2021/03/09 10:34:48;;;;;;;3.35;3.08;;;2.90;52.00;;;;;;5010630;28;20030;-53
2021/03/09 10:37:18;;;;;;;3.63;3.00;;;3.00;52.60;;;;;;5014617;28;20033;-51
2021/03/09 10:39:58;;;;;;;3.70;3.30;;;3.00;51.90;;;;;;5015646;28;20444;-54
2021/03/09 10:42:28;;;;;;;3.55;3.25;;;3.00;51.30;;;;;;5013310;28;20436;-52
2021/03/09 10:45:00;;;;;;;4.03;3.25;;;2.90;51.50;;;;;;5005502;28;20025;-56
2021/03/09 10:47:26;;;;;;;4.47;3.05;;;2.90;51.60;;;;;;5008279;28;20025;-55
2021/03/09 10:49:52;;;;;;;3.42;3.10;;;2.90;51.70;;;;;;5009327;28;20073;-55
2021/03/09 10:52:18;;;;;;;4.53;3.15;;;2.90;51.60;;;;;;5016614;28;20144;-52
2021/03/09 10:54:43;;;;;;;3.55;3.10;;;2.80;51.40;;;;;;5014174;28;20104;-56
2021/03/09 10:57:10;;;;;;;5.75;3.20;;;2.80;51.50;;;;;;5008892;28;20116;-56
2021/03/09 10:59:37;;;;;;;4.70;3.53;;;2.80;51.70;;;;;;5006942;28;20171;-54
2021/03/09 11:02:06;;;;;;;3.83;3.20;;;2.80;51.90;;;;;;5007415;28;20026;-54
2021/03/09 11:04:32;;;;;;;4.07;3.50;;;2.90;51.90;;;;;;5000459;28;20030;-56
2021/03/09 11:06:58;;;;;;;3.85;3.05;;;2.90;51.50;;;;;;5012418;28;20040;-55
2021/03/09 11:09:23;;;;;;;3.88;3.30;;;2.90;51.60;;;;;;5019218;28;20667;-57
2021/03/09 11:11:49;;;;;;;3.88;3.30;;;2.90;51.60;;;;;;5011984;28;20045;-56
2021/03/09 11:14:14;;;;;;;3.53;3.08;;;2.90;51.50;;;;;;5018091;28;20072;-56
2021/03/09 11:16:40;;;;;;;3.28;2.90;;;3.00;51.60;;;;;;5008089;28;20030;-55
2021/03/09 11:19:06;;;;;;;3.55;3.22;;;2.90;51.50;;;;;;5005336;28;20037;-54
2021/03/09 11:21:32;;;;;;;4.65;3.30;;;3.00;51.60;;;;;;5009221;28;20116;-56
2021/03/09 11:23:57;;;;;;;4.25;3.60;;;3.00;51.80;;;;;;4997438;28;20045;-55
2021/03/09 11:26:24;;;;;;;4.60;3.50;;;3.00;52.00;;;;;;5005225;28;20034;-56
2021/03/09 11:28:52;;;;;;;4.78;3.60;;;3.00;52.60;;;;;;5003052;28;20115;-56
2021/03/09 11:31:18;;;;;;;4.35;3.70;;;2.90;53.20;;;;;;5006455;28;20025;-57
2021/03/09 11:33:44;;;;;;;4.35;3.30;;;2.90;53.40;;;;;;5016299;28;20126;-56
2021/03/09 11:36:12;;;;;;;4.18;3.33;;;2.80;53.50;;;;;;5015163;28;20488;-56
2021/03/09 11:38:40;;;;;;;4.35;3.15;;;2.80;53.50;;;;;;5016778;28;20041;-55
2021/03/09 11:41:06;;;;;;;3.92;3.53;;;2.80;53.50;;;;;;5017727;28;20033;-56
2021/03/09 11:43:32;;;;;;;4.03;3.58;;;2.90;53.50;;;;;;5009484;28;20685;-56
2021/03/09 11:45:57;;;;;;;3.42;3.08;;;2.90;53.30;;;;;;5013438;28;20055;-57
2021/03/09 11:48:23;;;;;;;4.88;3.60;;;2.90;53.10;;;;;;5013634;28;20762;-57
2021/03/09 11:50:49;;;;;;;4.30;3.80;;;2.80;53.10;;;;;;5013191;28;20054;-56
2021/03/09 11:53:15;;;;;;;4.20;3.13;;;2.80;53.10;;;;;;5014956;28;20590;-55
2021/03/09 11:55:41;;;;;;;3.38;3.08;;;2.70;53.20;;;;;;5014171;28;20872;-57
2021/03/09 11:58:06;;;;;;;4.03;3.60;;;2.60;53.10;;;;;;5012745;28;20124;-57
2021/03/09 12:00:32;;;;;;;4.65;3.33;;;2.60;53.30;;;;;;5013391;28;20040;-54
2021/03/09 12:02:58;;;;;;;4.07;3.40;;;2.40;53.40;;;;;;5005987;28;20543;-53
2021/03/09 12:05:23;;;;;;;4.88;3.45;;;2.30;53.50;;;;;;5014737;28;20048;-55
2021/03/09 12:07:49;;;;;;;4.25;3.33;;;2.30;53.60;;;;;;5014308;28;20563;-55
2021/03/09 12:10:15;;;;;;;4.45;3.53;;;2.30;53.60;;;;;;5018298;28;20033;-54
2021/03/09 12:12:42;;;;;;;5.40;3.47;;;2.30;53.60;;;;;;5013581;28;20838;-54
2021/03/09 12:15:08;;;;;;;3.75;3.20;;;2.40;53.60;;;;;;5012648;28;20943;-57
2021/03/09 12:17:33;;;;;;;4.93;3.65;;;2.40;53.40;;;;;;5010273;28;20387;-54
2021/03/09 12:19:59;;;;;;;3.30;3.00;;;2.40;53.10;;;;;;5011106;28;20079;-55
2021/03/09 12:22:25;;;;;;;4.78;3.50;;;2.40;53.20;;;;;;5011403;28;20383;-57
2021/03/09 12:24:50;;;;;;;4.18;3.40;;;2.40;52.90;;;;;;5010556;28;20725;-57
2021/03/09 12:27:16;;;;;;;4.72;3.65;;;2.40;53.60;;;;;;5007234;28;20075;-56
2021/03/09 12:29:42;;;;;;;4.82;3.55;;;2.40;52.80;;;;;;5014956;28;20037;-56
2021/03/09 12:32:08;;;;;;;5.05;3.40;;;2.30;52.80;;;;;;5015620;28;20044;-54
2021/03/09 12:34:33;;;;;;;3.55;3.08;;;2.10;52.70;;;;;;5013073;28;20041;-56
2021/03/09 12:36:59;;;;;;;3.80;3.35;;;2.00;52.80;;;;;;5012228;28;20033;-53
2021/03/09 12:39:25;;;;;;;3.47;3.17;;;2.00;52.80;;;;;;5011980;28;20584;-55
2021/03/09 12:41:50;;;;;;;5.82;3.60;;;1.90;52.80;;;;;;5009696;28;20095;-53
2021/03/09 12:44:16;;;;;;;4.25;3.50;;;1.80;53.00;;;;;;5009101;28;20057;-58
2021/03/09 12:46:41;;;;;;;4.32;3.70;;;1.80;53.00;;;;;;5007369;28;20108;-56
2021/03/09 12:49:07;;;;;;;5.03;3.65;;;1.80;53.20;;;;;;5008144;28;20553;-55
2021/03/09 12:51:33;;;;;;;3.83;3.40;;;1.70;53.30;;;;;;5013131;28;20040;-55
2021/03/09 12:53:59;;;;;;;3.78;3.20;;;1.70;53.50;;;;;;5008186;28;20041;-55
2021/03/09 12:56:24;;;;;;;5.00;3.58;;;1.70;53.70;;;;;;5009136;28;20032;-54
2021/03/09 12:58:51;;;;;;;5.72;3.45;;;1.70;53.60;;;;;;5010439;28;20029;-57
2021/03/09 13:01:17;;;;;;;4.10;3.60;;;1.70;53.60;;;;;;5009341;28;20030;-56
2021/03/09 13:03:43;;;;;;;4.97;3.72;;;1.70;53.60;;;;;;5010206;28;20669;-56